^^
Station Historical Data
Daily Summary for June 20, 2017 Units:  Both    English   Metric
« Previous Day
Next Day »
Daily Weekly Monthly Yearly Custom
  High: Low: Average:
Temperature: 75.0 °F /  23.9 °C 50.2 °F /  10.1 °C 61.8 °F /  16.6 °C
Dew Point: 42.3 °F /  5.7 °C 28.6 °F /  -1.9 °C 36.4 °F /  2.4 °C
Humidity: 66% 23% 41%
Wind Speed: 8.9mph /  14.3km/h - 0.6mph /  1km/h
Wind Gust: 9.0mph /  14.5km/h - -
Wind- - SW
Pressure: 30.39 in /  1029 hPa 30.26 in /  1024.6 hPa -
Precipitation: 0.00 in /  0 mm    
Historical Graphs
 
 
Tabular Data for June 20, 2017
Time Temperature Dew Point Pressure Wind Wind Speed Wind Gust Humidity Rainfall Rate (Hourly) solar Conditions
00:02 50.4 °F /  10.2 °C 36.5 °F /  2.5 °C 30.31in /  1026.3hPa Calm     59% 0.00in /  0mm 0.0 W/m2
00:09 50.4 °F /  10.2 °C 37.0 °F /  2.8 °C 30.32in /  1026.6hPa Calm     60% 0.00in /  0mm 0.0 W/m2
00:15 50.2 °F /  10.1 °C 36.9 °F /  2.7 °C 30.32in /  1026.6hPa Calm   4.0mph /  6.4km/h 60% 0.00in /  0mm 0.0 W/m2
00:21 50.2 °F /  10.1 °C 36.9 °F /  2.7 °C 30.32in /  1026.6hPa Calm   3.0mph /  4.8km/h 60% 0.00in /  0mm 0.0 W/m2
00:27 50.2 °F /  10.1 °C 37.2 °F /  2.9 °C 30.32in /  1026.6hPa Calm   1.0mph /  1.6km/h 61% 0.00in /  0mm 0.0 W/m2
00:33 50.2 °F /  10.1 °C 37.2 °F /  2.9 °C 30.32in /  1026.6hPa Calm     61% 0.00in /  0mm 0.0 W/m2
00:39 50.2 °F /  10.1 °C 37.2 °F /  2.9 °C 30.32in /  1026.6hPa Calm   1.0mph /  1.6km/h 61% 0.00in /  0mm 0.0 W/m2
00:45 50.2 °F /  10.1 °C 37.2 °F /  2.9 °C 30.32in /  1026.6hPa Calm     61% 0.00in /  0mm 0.0 W/m2
00:51 50.4 °F /  10.2 °C 37.4 °F /  3 °C 30.32in /  1026.6hPa Calm   2.0mph /  3.2km/h 61% 0.00in /  0mm 0.0 W/m2
00:57 50.4 °F /  10.2 °C 37.4 °F /  3 °C 30.32in /  1026.6hPa Calm   1.0mph /  1.6km/h 61% 0.00in /  0mm 0.0 W/m2
01:04 50.4 °F /  10.2 °C 37.4 °F /  3 °C 30.32in /  1026.6hPa Calm   1.0mph /  1.6km/h 61% 0.00in /  0mm 0.0 W/m2
01:10 50.5 °F /  10.3 °C 37.6 °F /  3.1 °C 30.32in /  1026.6hPa Calm     61% 0.00in /  0mm 0.0 W/m2
01:16 50.5 °F /  10.3 °C 37.6 °F /  3.1 °C 30.32in /  1026.6hPa Calm     61% 0.00in /  0mm 0.0 W/m2
01:22 50.4 °F /  10.2 °C 37.4 °F /  3 °C 30.32in /  1026.6hPa Calm   1.0mph /  1.6km/h 61% 0.00in /  0mm 0.0 W/m2
01:28 50.4 °F /  10.2 °C 37.4 °F /  3 °C 30.31in /  1026.3hPa Calm     61% 0.00in /  0mm 0.0 W/m2
01:34 50.5 °F /  10.3 °C 37.6 °F /  3.1 °C 30.31in /  1026.3hPa Calm   1.0mph /  1.6km/h 61% 0.00in /  0mm 0.0 W/m2
01:40 50.7 °F /  10.4 °C 37.8 °F /  3.2 °C 30.31in /  1026.3hPa Calm     61% 0.00in /  0mm 0.0 W/m2
01:46 50.9 °F /  10.5 °C 37.9 °F /  3.3 °C 30.31in /  1026.3hPa Calm   2.0mph /  3.2km/h 61% 0.00in /  0mm 0.0 W/m2
01:53 51.1 °F /  10.6 °C 38.1 °F /  3.4 °C 30.31in /  1026.3hPa Calm     61% 0.00in /  0mm 0.0 W/m2
01:59 51.3 °F /  10.7 °C 38.3 °F /  3.5 °C 30.31in /  1026.3hPa SE 2.9mph /  4.7km/h 3.0mph /  4.8km/h 61% 0.00in /  0mm 0.0 W/m2
02:05 51.3 °F /  10.7 °C 38.3 °F /  3.5 °C 30.31in /  1026.3hPa ENE 0.9mph /  1.4km/h 1.0mph /  1.6km/h 61% 0.00in /  0mm 0.0 W/m2
02:11 51.4 °F /  10.8 °C 37.9 °F /  3.3 °C 30.31in /  1026.3hPa Calm     60% 0.00in /  0mm 0.0 W/m2
02:17 51.4 °F /  10.8 °C 37.9 °F /  3.3 °C 30.31in /  1026.3hPa Calm     60% 0.00in /  0mm 0.0 W/m2
02:23 51.4 °F /  10.8 °C 38.5 °F /  3.6 °C 30.31in /  1026.3hPa Calm   1.0mph /  1.6km/h 61% 0.00in /  0mm 0.0 W/m2
02:29 51.6 °F /  10.9 °C 38.7 °F /  3.7 °C 30.31in /  1026.3hPa Calm     61% 0.00in /  0mm 0.0 W/m2
02:36 51.8 °F /  11 °C 38.3 °F /  3.5 °C 30.31in /  1026.3hPa Calm   1.0mph /  1.6km/h 60% 0.00in /  0mm 0.0 W/m2
02:42 52.0 °F /  11.1 °C 38.5 °F /  3.6 °C 30.31in /  1026.3hPa Calm     60% 0.00in /  0mm 0.0 W/m2
02:48 52.2 °F /  11.2 °C 38.7 °F /  3.7 °C 30.31in /  1026.3hPa Calm   1.0mph /  1.6km/h 60% 0.00in /  0mm 0.0 W/m2
02:54 52.2 °F /  11.2 °C 38.7 °F /  3.7 °C 30.31in /  1026.3hPa Calm   1.0mph /  1.6km/h 60% 0.00in /  0mm 0.0 W/m2
03:00 52.3 °F /  11.3 °C 38.5 °F /  3.6 °C 30.31in /  1026.3hPa ENE 0.9mph /  1.4km/h 3.0mph /  4.8km/h 59% 0.00in /  0mm 0.0 W/m2
03:06 52.5 °F /  11.4 °C 38.7 °F /  3.7 °C 30.31in /  1026.3hPa NE 0.9mph /  1.4km/h 3.0mph /  4.8km/h 59% 0.00in /  0mm 0.0 W/m2
03:12 52.7 °F /  11.5 °C 38.8 °F /  3.8 °C 30.31in /  1026.3hPa Calm   3.0mph /  4.8km/h 59% 0.00in /  0mm 0.0 W/m2
03:19 52.9 °F /  11.6 °C 39.0 °F /  3.9 °C 30.32in /  1026.6hPa Calm   1.0mph /  1.6km/h 59% 0.00in /  0mm 0.0 W/m2
03:25 53.1 °F /  11.7 °C 39.2 °F /  4 °C 30.32in /  1026.6hPa East 2.0mph /  3.2km/h 2.0mph /  3.2km/h 59% 0.00in /  0mm 0.0 W/m2
03:31 53.2 °F /  11.8 °C 38.8 °F /  3.8 °C 30.32in /  1026.6hPa Calm   5.0mph /  8km/h 58% 0.00in /  0mm 0.0 W/m2
03:37 53.8 °F /  12.1 °C 39.4 °F /  4.1 °C 30.32in /  1026.6hPa North 2.9mph /  4.7km/h 5.0mph /  8km/h 58% 0.00in /  0mm 0.0 W/m2
03:43 54.0 °F /  12.2 °C 39.0 °F /  3.9 °C 30.32in /  1026.6hPa Calm   3.0mph /  4.8km/h 57% 0.00in /  0mm 0.0 W/m2
03:49 54.1 °F /  12.3 °C 39.2 °F /  4 °C 30.32in /  1026.6hPa Calm   2.0mph /  3.2km/h 57% 0.00in /  0mm 0.0 W/m2
03:56 54.1 °F /  12.3 °C 38.8 °F /  3.8 °C 30.32in /  1026.6hPa Calm     56% 0.00in /  0mm 0.0 W/m2
04:02 54.1 °F /  12.3 °C 38.8 °F /  3.8 °C 30.32in /  1026.6hPa Calm   2.0mph /  3.2km/h 56% 0.00in /  0mm 0.0 W/m2
04:08 54.1 °F /  12.3 °C 38.8 °F /  3.8 °C 30.32in /  1026.6hPa Calm   1.0mph /  1.6km/h 56% 0.00in /  0mm 0.0 W/m2
04:14 54.1 °F /  12.3 °C 38.8 °F /  3.8 °C 30.32in /  1026.6hPa Calm   1.0mph /  1.6km/h 56% 0.00in /  0mm 0.0 W/m2
04:20 54.1 °F /  12.3 °C 38.8 °F /  3.8 °C 30.33in /  1027hPa Calm     56% 0.00in /  0mm 0.0 W/m2
04:26 54.3 °F /  12.4 °C 39.4 °F /  4.1 °C 30.33in /  1027hPa Calm     57% 0.00in /  0mm 0.0 W/m2
04:32 54.3 °F /  12.4 °C 39.4 °F /  4.1 °C 30.33in /  1027hPa Calm     57% 0.00in /  0mm 0.0 W/m2
04:38 54.3 °F /  12.4 °C 39.4 °F /  4.1 °C 30.33in /  1027hPa Calm     57% 0.00in /  0mm 0.0 W/m2
04:45 54.3 °F /  12.4 °C 39.4 °F /  4.1 °C 30.33in /  1027hPa Calm   1.0mph /  1.6km/h 57% 0.00in /  0mm 0.0 W/m2
04:51 54.3 °F /  12.4 °C 39.0 °F /  3.9 °C 30.33in /  1027hPa ESE 0.9mph /  1.4km/h 1.0mph /  1.6km/h 56% 0.00in /  0mm 0.0 W/m2
04:57 54.7 °F /  12.6 °C 39.4 °F /  4.1 °C 30.33in /  1027hPa Calm     56% 0.00in /  0mm 0.0 W/m2
05:03 54.9 °F /  12.7 °C 39.4 °F /  4.1 °C 30.33in /  1027hPa Calm     56% 0.00in /  0mm 0.0 W/m2
05:09 54.9 °F /  12.7 °C 39.4 °F /  4.1 °C 30.34in /  1027.3hPa Calm     56% 0.00in /  0mm 0.0 W/m2
05:15 54.7 °F /  12.6 °C 39.7 °F /  4.3 °C 30.34in /  1027.3hPa Calm     57% 0.00in /  0mm 0.0 W/m2
05:21 54.7 °F /  12.6 °C 39.7 °F /  4.3 °C 30.34in /  1027.3hPa Calm     57% 0.00in /  0mm 0.0 W/m2
05:27 54.5 °F /  12.5 °C 39.6 °F /  4.2 °C 30.34in /  1027.3hPa Calm     57% 0.00in /  0mm 0.0 W/m2
05:33 54.3 °F /  12.4 °C 39.4 °F /  4.1 °C 30.34in /  1027.3hPa Calm     57% 0.00in /  0mm 0.0 W/m2
05:39 54.1 °F /  12.3 °C 39.7 °F /  4.3 °C 30.34in /  1027.3hPa Calm     58% 0.00in /  0mm 0.0 W/m2
05:45 54.0 °F /  12.2 °C 39.6 °F /  4.2 °C 30.34in /  1027.3hPa Calm     58% 0.00in /  0mm 0.0 W/m2
05:51 53.8 °F /  12.1 °C 39.7 °F /  4.3 °C 30.34in /  1027.3hPa Calm     59% 0.00in /  0mm 0.0 W/m2
05:58 53.4 °F /  11.9 °C 39.4 °F /  4.1 °C 30.34in /  1027.3hPa Calm     59% 0.00in /  0mm 0.0 W/m2
06:04 53.1 °F /  11.7 °C 39.6 °F /  4.2 °C 30.35in /  1027.7hPa Calm     60% 0.00in /  0mm 0.0 W/m2
06:10 52.9 °F /  11.6 °C 39.4 °F /  4.1 °C 30.35in /  1027.7hPa Calm     60% 0.00in /  0mm 0.0 W/m2
06:16 52.5 °F /  11.4 °C 39.4 °F /  4.1 °C 30.35in /  1027.7hPa Calm     61% 0.00in /  0mm 0.0 W/m2
06:22 52.2 °F /  11.2 °C 39.2 °F /  4 °C 30.35in /  1027.7hPa Calm     61% 0.00in /  0mm 0.0 W/m2
06:28 52.0 °F /  11.1 °C 39.4 °F /  4.1 °C 30.36in /  1028hPa Calm     62% 0.00in /  0mm 0.0 W/m2
06:34 51.6 °F /  10.9 °C 39.0 °F /  3.9 °C 30.36in /  1028hPa Calm     62% 0.00in /  0mm 0.0 W/m2
06:40 51.4 °F /  10.8 °C 38.8 °F /  3.8 °C 30.36in /  1028hPa Calm   1.0mph /  1.6km/h 62% 0.00in /  0mm 7.0 W/m2
06:47 51.4 °F /  10.8 °C 38.8 °F /  3.8 °C 30.37in /  1028.3hPa Calm     62% 0.00in /  0mm 12.0 W/m2
06:53 51.3 °F /  10.7 °C 39.0 °F /  3.9 °C 30.37in /  1028.3hPa Calm     63% 0.00in /  0mm 21.0 W/m2
06:59 51.3 °F /  10.7 °C 39.0 °F /  3.9 °C 30.37in /  1028.3hPa Calm     63% 0.00in /  0mm 26.0 W/m2
07:05 51.3 °F /  10.7 °C 39.0 °F /  3.9 °C 30.37in /  1028.3hPa Calm     63% 0.00in /  0mm 26.0 W/m2
07:11 51.3 °F /  10.7 °C 39.0 °F /  3.9 °C 30.37in /  1028.3hPa Calm     63% 0.00in /  0mm 26.0 W/m2
07:17 51.3 °F /  10.7 °C 39.6 °F /  4.2 °C 30.37in /  1028.3hPa Calm     64% 0.00in /  0mm 26.0 W/m2
07:23 51.3 °F /  10.7 °C 39.6 °F /  4.2 °C 30.38in /  1028.7hPa Calm     64% 0.00in /  0mm 26.0 W/m2
07:29 51.3 °F /  10.7 °C 39.9 °F /  4.4 °C 30.38in /  1028.7hPa Calm     65% 0.00in /  0mm 28.0 W/m2
07:36 51.4 °F /  10.8 °C 40.5 °F /  4.7 °C 30.38in /  1028.7hPa Calm     66% 0.00in /  0mm 32.0 W/m2
07:42 51.6 °F /  10.9 °C 40.6 °F /  4.8 °C 30.39in /  1029hPa Calm     66% 0.00in /  0mm 35.0 W/m2
07:48 52.2 °F /  11.2 °C 39.9 °F /  4.4 °C 30.39in /  1029hPa Calm     63% 0.00in /  0mm 44.0 W/m2
07:54 53.2 °F /  11.8 °C 41.0 °F /  5 °C 30.39in /  1029hPa Calm     63% 0.00in /  0mm 214.0 W/m2
08:00 54.9 °F /  12.7 °C 40.8 °F /  4.9 °C 30.39in /  1029hPa Calm     59% 0.00in /  0mm 306.0 W/m2
08:06 56.8 °F /  13.8 °C 41.4 °F /  5.2 °C 30.39in /  1029hPa Calm   4.0mph /  6.4km/h 56% 0.00in /  0mm 330.0 W/m2
08:19 60.3 °F /  15.7 °C 41.5 °F /  5.3 °C 30.38in /  1028.7hPa Calm   1.0mph /  1.6km/h 50% 0.00in /  0mm 113.0 W/m2
08:25 61.0 °F /  16.1 °C 41.7 °F /  5.4 °C 30.39in /  1029hPa Calm     49% 0.00in /  0mm 120.0 W/m2
08:31 61.5 °F /  16.4 °C 41.2 °F /  5.1 °C 30.39in /  1029hPa Calm     47% 0.00in /  0mm 338.0 W/m2
08:37 62.8 °F /  17.1 °C 41.2 °F /  5.1 °C 30.38in /  1028.7hPa Calm     45% 0.00in /  0mm 355.0 W/m2
08:43 64.0 °F /  17.8 °C 41.7 °F /  5.4 °C 30.38in /  1028.7hPa Calm     44% 0.00in /  0mm 376.0 W/m2
08:50 65.3 °F /  18.5 °C 42.3 °F /  5.7 °C 30.38in /  1028.7hPa Calm   1.0mph /  1.6km/h 43% 0.00in /  0mm 396.0 W/m2
08:55 66.4 °F /  19.1 °C 41.9 °F /  5.5 °C 30.38in /  1028.7hPa Calm   1.0mph /  1.6km/h 41% 0.00in /  0mm 415.0 W/m2
09:01 67.5 °F /  19.7 °C 41.0 °F /  5 °C 30.38in /  1028.7hPa Calm   4.0mph /  6.4km/h 38% 0.00in /  0mm 431.0 W/m2
09:08 68.4 °F /  20.2 °C 40.3 °F /  4.6 °C 30.38in /  1028.7hPa SSE 0.9mph /  1.4km/h 3.0mph /  4.8km/h 36% 0.00in /  0mm 448.0 W/m2
09:14 69.1 °F /  20.6 °C 40.3 °F /  4.6 °C 30.38in /  1028.7hPa NE 2.0mph /  3.2km/h 4.0mph /  6.4km/h 35% 0.00in /  0mm 462.0 W/m2
09:20 69.6 °F /  20.9 °C 40.8 °F /  4.9 °C 30.38in /  1028.7hPa Calm   2.0mph /  3.2km/h 35% 0.00in /  0mm 478.0 W/m2
09:26 70.2 °F /  21.2 °C 39.7 °F /  4.3 °C 30.38in /  1028.7hPa Calm   4.0mph /  6.4km/h 33% 0.00in /  0mm 490.0 W/m2
09:32 70.3 °F /  21.3 °C 39.0 °F /  3.9 °C 30.37in /  1028.3hPa North 0.9mph /  1.4km/h 3.0mph /  4.8km/h 32% 0.00in /  0mm 506.0 W/m2
09:38 70.7 °F /  21.5 °C 39.4 °F /  4.1 °C 30.38in /  1028.7hPa Calm   3.0mph /  4.8km/h 32% 0.00in /  0mm 522.0 W/m2
09:44 70.9 °F /  21.6 °C 39.6 °F /  4.2 °C 30.37in /  1028.3hPa Calm   1.0mph /  1.6km/h 32% 0.00in /  0mm 536.0 W/m2
09:50 71.2 °F /  21.8 °C 39.9 °F /  4.4 °C 30.37in /  1028.3hPa North 0.9mph /  1.4km/h 1.0mph /  1.6km/h 32% 0.00in /  0mm 548.0 W/m2
09:57 71.4 °F /  21.9 °C 40.1 °F /  4.5 °C 30.37in /  1028.3hPa Calm   1.0mph /  1.6km/h 32% 0.00in /  0mm 563.0 W/m2
10:03 71.4 °F /  21.9 °C 40.1 °F /  4.5 °C 30.37in /  1028.3hPa Calm   1.0mph /  1.6km/h 32% 0.00in /  0mm 577.0 W/m2
10:09 72.0 °F /  22.2 °C 38.8 °F /  3.8 °C 30.37in /  1028.3hPa Calm   5.0mph /  8km/h 30% 0.00in /  0mm 585.0 W/m2
10:15 72.7 °F /  22.6 °C 39.4 °F /  4.1 °C 30.37in /  1028.3hPa WNW 0.9mph /  1.4km/h 1.0mph /  1.6km/h 30% 0.00in /  0mm 596.0 W/m2
10:21 72.9 °F /  22.7 °C 38.7 °F /  3.7 °C 30.37in /  1028.3hPa Calm   3.0mph /  4.8km/h 29% 0.00in /  0mm 605.0 W/m2
10:27 72.0 °F /  22.2 °C 37.9 °F /  3.3 °C 30.37in /  1028.3hPa WSW 0.9mph /  1.4km/h 5.0mph /  8km/h 29% 0.00in /  0mm 615.0 W/m2
10:33 71.1 °F /  21.7 °C 38.1 °F /  3.4 °C 30.36in /  1028hPa Calm   1.0mph /  1.6km/h 30% 0.00in /  0mm 626.0 W/m2
10:39 71.1 °F /  21.7 °C 38.8 °F /  3.8 °C 30.36in /  1028hPa Calm   1.0mph /  1.6km/h 31% 0.00in /  0mm 636.0 W/m2
10:45 71.4 °F /  21.9 °C 38.3 °F /  3.5 °C 30.36in /  1028hPa Calm   1.0mph /  1.6km/h 30% 0.00in /  0mm 645.0 W/m2
10:51 72.0 °F /  22.2 °C 37.9 °F /  3.3 °C 30.36in /  1028hPa Calm   3.0mph /  4.8km/h 29% 0.00in /  0mm 649.0 W/m2
10:57 72.1 °F /  22.3 °C 37.2 °F /  2.9 °C 30.35in /  1027.7hPa West 0.9mph /  1.4km/h 5.0mph /  8km/h 28% 0.00in /  0mm 671.0 W/m2
11:03 72.0 °F /  22.2 °C 37.9 °F /  3.3 °C 30.35in /  1027.7hPa WNW 2.0mph /  3.2km/h 6.0mph /  9.7km/h 29% 0.00in /  0mm 679.0 W/m2
11:09 71.1 °F /  21.7 °C 37.2 °F /  2.9 °C 30.35in /  1027.7hPa Calm   4.0mph /  6.4km/h 29% 0.00in /  0mm 675.0 W/m2
11:15 70.9 °F /  21.6 °C 37.9 °F /  3.3 °C 30.35in /  1027.7hPa SSW 2.9mph /  4.7km/h 7.0mph /  11.3km/h 30% 0.00in /  0mm 673.0 W/m2
11:21 70.9 °F /  21.6 °C 37.0 °F /  2.8 °C 30.34in /  1027.3hPa WSW 0.9mph /  1.4km/h 3.0mph /  4.8km/h 29% 0.00in /  0mm 677.0 W/m2
11:27 70.9 °F /  21.6 °C 37.9 °F /  3.3 °C 30.34in /  1027.3hPa West 0.9mph /  1.4km/h 4.0mph /  6.4km/h 30% 0.00in /  0mm 686.0 W/m2
11:33 71.2 °F /  21.8 °C 38.3 °F /  3.5 °C 30.34in /  1027.3hPa Calm   3.0mph /  4.8km/h 30% 0.00in /  0mm 693.0 W/m2
11:40 71.4 °F /  21.9 °C 37.6 °F /  3.1 °C 30.34in /  1027.3hPa WNW 2.0mph /  3.2km/h 4.0mph /  6.4km/h 29% 0.00in /  0mm 687.0 W/m2
11:46 71.2 °F /  21.8 °C 37.4 °F /  3 °C 30.33in /  1027hPa South 2.9mph /  4.7km/h 3.0mph /  4.8km/h 29% 0.00in /  0mm 679.0 W/m2
11:52 71.4 °F /  21.9 °C 36.7 °F /  2.6 °C 30.33in /  1027hPa WSW 2.0mph /  3.2km/h 5.0mph /  8km/h 28% 0.00in /  0mm 693.0 W/m2
11:58 71.8 °F /  22.1 °C 36.9 °F /  2.7 °C 30.33in /  1027hPa WSW 0.9mph /  1.4km/h 8.0mph /  12.9km/h 28% 0.00in /  0mm 691.0 W/m2
12:04 72.3 °F /  22.4 °C 37.4 °F /  3 °C 30.33in /  1027hPa Calm   4.0mph /  6.4km/h 28% 0.00in /  0mm 698.0 W/m2
12:10 72.9 °F /  22.7 °C 37.8 °F /  3.2 °C 30.33in /  1027hPa Calm   2.0mph /  3.2km/h 28% 0.00in /  0mm 691.0 W/m2
12:16 73.0 °F /  22.8 °C 37.0 °F /  2.8 °C 30.32in /  1026.6hPa Calm   2.0mph /  3.2km/h 27% 0.00in /  0mm 680.0 W/m2
12:22 72.9 °F /  22.7 °C 37.8 °F /  3.2 °C 30.32in /  1026.6hPa Calm   1.0mph /  1.6km/h 28% 0.00in /  0mm 671.0 W/m2
12:28 73.2 °F /  22.9 °C 37.2 °F /  2.9 °C 30.31in /  1026.3hPa Calm   2.0mph /  3.2km/h 27% 0.00in /  0mm 668.0 W/m2
12:35 73.8 °F /  23.2 °C 36.7 °F /  2.6 °C 30.31in /  1026.3hPa NNW 0.9mph /  1.4km/h 3.0mph /  4.8km/h 26% 0.00in /  0mm 661.0 W/m2
12:41 73.8 °F /  23.2 °C 37.8 °F /  3.2 °C 30.31in /  1026.3hPa SSW 0.9mph /  1.4km/h 4.0mph /  6.4km/h 27% 0.00in /  0mm 656.0 W/m2
12:47 73.6 °F /  23.1 °C 37.6 °F /  3.1 °C 30.31in /  1026.3hPa NNW 4.0mph /  6.4km/h 4.0mph /  6.4km/h 27% 0.00in /  0mm 656.0 W/m2
12:53 73.8 °F /  23.2 °C 36.7 °F /  2.6 °C 30.30in /  1026hPa NNW 4.9mph /  7.9km/h 6.0mph /  9.7km/h 26% 0.00in /  0mm 652.0 W/m2
12:59 73.9 °F /  23.3 °C 36.9 °F /  2.7 °C 30.30in /  1026hPa Calm   1.0mph /  1.6km/h 26% 0.00in /  0mm 642.0 W/m2
13:05 73.9 °F /  23.3 °C 36.9 °F /  2.7 °C 30.29in /  1025.6hPa North 0.9mph /  1.4km/h 1.0mph /  1.6km/h 26% 0.00in /  0mm 643.0 W/m2
13:11 74.3 °F /  23.5 °C 37.2 °F /  2.9 °C 30.29in /  1025.6hPa WSW 0.9mph /  1.4km/h 1.0mph /  1.6km/h 26% 0.00in /  0mm 643.0 W/m2
13:17 74.1 °F /  23.4 °C 37.0 °F /  2.8 °C 30.29in /  1025.6hPa NNW 0.9mph /  1.4km/h 2.0mph /  3.2km/h 26% 0.00in /  0mm 626.0 W/m2
13:24 74.3 °F /  23.5 °C 38.1 °F /  3.4 °C 30.29in /  1025.6hPa Calm   2.0mph /  3.2km/h 27% 0.00in /  0mm 629.0 W/m2
13:30 74.7 °F /  23.7 °C 37.6 °F /  3.1 °C 30.28in /  1025.3hPa NNW 2.0mph /  3.2km/h 3.0mph /  4.8km/h 26% 0.00in /  0mm 608.0 W/m2
13:36 75.0 °F /  23.9 °C 37.8 °F /  3.2 °C 30.28in /  1025.3hPa West 0.9mph /  1.4km/h 5.0mph /  8km/h 26% 0.00in /  0mm 585.0 W/m2
13:42 74.8 °F /  23.8 °C 36.7 °F /  2.6 °C 30.27in /  1024.9hPa Calm   3.0mph /  4.8km/h 25% 0.00in /  0mm 580.0 W/m2
13:48 74.7 °F /  23.7 °C 36.5 °F /  2.5 °C 30.27in /  1024.9hPa North 2.9mph /  4.7km/h 8.0mph /  12.9km/h 25% 0.00in /  0mm 555.0 W/m2
13:54 74.7 °F /  23.7 °C 36.5 °F /  2.5 °C 30.27in /  1024.9hPa NNW 4.9mph /  7.9km/h 6.0mph /  9.7km/h 25% 0.00in /  0mm 541.0 W/m2
14:00 74.7 °F /  23.7 °C 36.5 °F /  2.5 °C 30.26in /  1024.6hPa NNE 2.9mph /  4.7km/h 5.0mph /  8km/h 25% 0.00in /  0mm 522.0 W/m2
14:07 74.7 °F /  23.7 °C 36.5 °F /  2.5 °C 30.26in /  1024.6hPa NNW 2.0mph /  3.2km/h 2.0mph /  3.2km/h 25% 0.00in /  0mm 513.0 W/m2
14:13 74.8 °F /  23.8 °C 36.7 °F /  2.6 °C 30.26in /  1024.6hPa Calm   1.0mph /  1.6km/h 25% 0.00in /  0mm 501.0 W/m2
14:19 74.8 °F /  23.8 °C 34.5 °F /  1.4 °C 30.26in /  1024.6hPa Calm   6.0mph /  9.7km/h 23% 0.00in /  0mm 487.0 W/m2
14:25 74.8 °F /  23.8 °C 35.6 °F /  2 °C 30.26in /  1024.6hPa NNW 4.9mph /  7.9km/h 7.0mph /  11.3km/h 24% 0.00in /  0mm 478.0 W/m2
14:31 74.8 °F /  23.8 °C 34.5 °F /  1.4 °C 30.26in /  1024.6hPa NNW 2.9mph /  4.7km/h 5.0mph /  8km/h 23% 0.00in /  0mm 469.0 W/m2
14:37 74.5 °F /  23.6 °C 35.2 °F /  1.8 °C 30.26in /  1024.6hPa Calm   4.0mph /  6.4km/h 24% 0.00in /  0mm 441.0 W/m2
14:43 74.5 °F /  23.6 °C 35.2 °F /  1.8 °C 30.26in /  1024.6hPa NNW 4.0mph /  6.4km/h 4.0mph /  6.4km/h 24% 0.00in /  0mm 417.0 W/m2
14:49 74.5 °F /  23.6 °C 36.3 °F /  2.4 °C 30.26in /  1024.6hPa Calm   3.0mph /  4.8km/h 25% 0.00in /  0mm 404.0 W/m2
14:56 74.3 °F /  23.5 °C 35.2 °F /  1.8 °C 30.26in /  1024.6hPa WNW 0.9mph /  1.4km/h 4.0mph /  6.4km/h 24% 0.00in /  0mm 383.0 W/m2
15:02 74.1 °F /  23.4 °C 35.1 °F /  1.7 °C 30.26in /  1024.6hPa Calm   1.0mph /  1.6km/h 24% 0.00in /  0mm 258.0 W/m2
15:08 73.9 °F /  23.3 °C 33.8 °F /  1 °C 30.26in /  1024.6hPa NNW 2.0mph /  3.2km/h 7.0mph /  11.3km/h 23% 0.00in /  0mm 220.0 W/m2
15:14 73.6 °F /  23.1 °C 34.5 °F /  1.4 °C 30.26in /  1024.6hPa Calm   5.0mph /  8km/h 24% 0.00in /  0mm 258.0 W/m2
15:20 73.2 °F /  22.9 °C 34.3 °F /  1.3 °C 30.26in /  1024.6hPa WSW 0.9mph /  1.4km/h 5.0mph /  8km/h 24% 0.00in /  0mm 223.0 W/m2
15:26 72.7 °F /  22.6 °C 34.9 °F /  1.6 °C 30.26in /  1024.6hPa West 0.9mph /  1.4km/h 5.0mph /  8km/h 25% 0.00in /  0mm 67.0 W/m2
15:32 72.3 °F /  22.4 °C 34.5 °F /  1.4 °C 30.26in /  1024.6hPa SW 2.9mph /  4.7km/h 3.0mph /  4.8km/h 25% 0.00in /  0mm 65.0 W/m2
15:38 72.0 °F /  22.2 °C 34.2 °F /  1.2 °C 30.26in /  1024.6hPa SW 2.9mph /  4.7km/h 4.0mph /  6.4km/h 25% 0.00in /  0mm 62.0 W/m2
15:44 71.6 °F /  22 °C 34.0 °F /  1.1 °C 30.26in /  1024.6hPa Calm     25% 0.00in /  0mm 60.0 W/m2
15:51 71.4 °F /  21.9 °C 33.8 °F /  1 °C 30.26in /  1024.6hPa SW 2.0mph /  3.2km/h 4.0mph /  6.4km/h 25% 0.00in /  0mm 54.0 W/m2
15:57 71.2 °F /  21.8 °C 33.6 °F /  0.9 °C 30.26in /  1024.6hPa SW 0.9mph /  1.4km/h 4.0mph /  6.4km/h 25% 0.00in /  0mm 47.0 W/m2
16:03 71.2 °F /  21.8 °C 33.6 °F /  0.9 °C 30.26in /  1024.6hPa NNW 0.9mph /  1.4km/h 5.0mph /  8km/h 25% 0.00in /  0mm 40.0 W/m2
16:09 71.1 °F /  21.7 °C 34.5 °F /  1.4 °C 30.26in /  1024.6hPa Calm   4.0mph /  6.4km/h 26% 0.00in /  0mm 30.0 W/m2
16:15 70.9 °F /  21.6 °C 35.2 °F /  1.8 °C 30.26in /  1024.6hPa Calm   2.0mph /  3.2km/h 27% 0.00in /  0mm 28.0 W/m2
16:21 70.3 °F /  21.3 °C 33.8 °F /  1 °C 30.26in /  1024.6hPa NNW 0.9mph /  1.4km/h 5.0mph /  8km/h 26% 0.00in /  0mm 26.0 W/m2
16:27 70.2 °F /  21.2 °C 33.6 °F /  0.9 °C 30.26in /  1024.6hPa NNW 2.0mph /  3.2km/h 3.0mph /  4.8km/h 26% 0.00in /  0mm 25.0 W/m2
16:34 70.0 °F /  21.1 °C 34.5 °F /  1.4 °C 30.26in /  1024.6hPa SW 0.9mph /  1.4km/h 2.0mph /  3.2km/h 27% 0.00in /  0mm 23.0 W/m2
16:40 69.6 °F /  20.9 °C 34.2 °F /  1.2 °C 30.26in /  1024.6hPa NNW 0.9mph /  1.4km/h 3.0mph /  4.8km/h 27% 0.00in /  0mm 21.0 W/m2
16:46 69.4 °F /  20.8 °C 34.9 °F /  1.6 °C 30.26in /  1024.6hPa Calm     28% 0.00in /  0mm 18.0 W/m2
16:52 69.3 °F /  20.7 °C 33.8 °F /  1 °C 30.26in /  1024.6hPa Calm     27% 0.00in /  0mm 14.0 W/m2
16:58 68.7 °F /  20.4 °C 34.3 °F /  1.3 °C 30.26in /  1024.6hPa Calm     28% 0.00in /  0mm 12.0 W/m2
17:04 68.4 °F /  20.2 °C 35.8 °F /  2.1 °C 30.27in /  1024.9hPa Calm     30% 0.00in /  0mm 9.0 W/m2
17:10 67.8 °F /  19.9 °C 35.2 °F /  1.8 °C 30.27in /  1024.9hPa Calm     30% 0.00in /  0mm 5.0 W/m2
17:16 67.3 °F /  19.6 °C 34.7 °F /  1.5 °C 30.27in /  1024.9hPa Calm     30% 0.00in /  0mm 0.0 W/m2
17:22 66.6 °F /  19.2 °C 35.1 °F /  1.7 °C 30.27in /  1024.9hPa Calm     31% 0.00in /  0mm 0.0 W/m2
17:28 65.8 °F /  18.8 °C 34.3 °F /  1.3 °C 30.27in /  1024.9hPa Calm     31% 0.00in /  0mm 0.0 W/m2
17:34 65.1 °F /  18.4 °C 34.5 °F /  1.4 °C 30.27in /  1024.9hPa Calm     32% 0.00in /  0mm 0.0 W/m2
17:40 64.6 °F /  18.1 °C 34.9 °F /  1.6 °C 30.27in /  1024.9hPa Calm     33% 0.00in /  0mm 0.0 W/m2
17:46 63.9 °F /  17.7 °C 34.2 °F /  1.2 °C 30.27in /  1024.9hPa Calm     33% 0.00in /  0mm 0.0 W/m2
17:53 63.1 °F /  17.3 °C 35.1 °F /  1.7 °C 30.28in /  1025.3hPa Calm     35% 0.00in /  0mm 0.0 W/m2
17:59 62.4 °F /  16.9 °C 33.6 °F /  0.9 °C 30.28in /  1025.3hPa Calm     34% 0.00in /  0mm 0.0 W/m2
18:05 61.9 °F /  16.6 °C 34.0 °F /  1.1 °C 30.28in /  1025.3hPa Calm     35% 0.00in /  0mm 0.0 W/m2
18:11 61.3 °F /  16.3 °C 33.4 °F /  0.8 °C 30.29in /  1025.6hPa Calm   1.0mph /  1.6km/h 35% 0.00in /  0mm 0.0 W/m2
18:17 61.0 °F /  16.1 °C 33.8 °F /  1 °C 30.29in /  1025.6hPa Calm   1.0mph /  1.6km/h 36% 0.00in /  0mm 0.0 W/m2
18:23 60.6 °F /  15.9 °C 33.4 °F /  0.8 °C 30.29in /  1025.6hPa Calm   2.0mph /  3.2km/h 36% 0.00in /  0mm 0.0 W/m2
18:29 60.6 °F /  15.9 °C 33.4 °F /  0.8 °C 30.29in /  1025.6hPa Calm     36% 0.00in /  0mm 0.0 W/m2
18:35 60.4 °F /  15.8 °C 34.0 °F /  1.1 °C 30.29in /  1025.6hPa Calm     37% 0.00in /  0mm 0.0 W/m2
18:41 60.3 °F /  15.7 °C 34.5 °F /  1.4 °C 30.29in /  1025.6hPa Calm     38% 0.00in /  0mm 0.0 W/m2
18:48 60.3 °F /  15.7 °C 33.8 °F /  1 °C 30.30in /  1026hPa Calm   2.0mph /  3.2km/h 37% 0.00in /  0mm 0.0 W/m2
18:54 60.1 °F /  15.6 °C 34.3 °F /  1.3 °C 30.30in /  1026hPa Calm     38% 0.00in /  0mm 0.0 W/m2
19:00 59.9 °F /  15.5 °C 34.2 °F /  1.2 °C 30.30in /  1026hPa Calm     38% 0.00in /  0mm 0.0 W/m2
19:06 59.7 °F /  15.4 °C 34.0 °F /  1.1 °C 30.30in /  1026hPa Calm     38% 0.00in /  0mm 0.0 W/m2
19:12 59.7 °F /  15.4 °C 34.0 °F /  1.1 °C 30.31in /  1026.3hPa Calm   3.0mph /  4.8km/h 38% 0.00in /  0mm 0.0 W/m2
19:20 59.7 °F /  15.4 °C 34.7 °F /  1.5 °C 30.31in /  1026.3hPa Calm   1.0mph /  1.6km/h 39% 0.00in /  0mm 0.0 W/m2
19:26 59.7 °F /  15.4 °C 34.0 °F /  1.1 °C 30.31in /  1026.3hPa Calm     38% 0.00in /  0mm 0.0 W/m2
19:32 59.5 °F /  15.3 °C 34.5 °F /  1.4 °C 30.31in /  1026.3hPa Calm     39% 0.00in /  0mm 0.0 W/m2
19:39 59.5 °F /  15.3 °C 34.5 °F /  1.4 °C 30.31in /  1026.3hPa Calm     39% 0.00in /  0mm 0.0 W/m2
19:45 59.4 °F /  15.2 °C 33.8 °F /  1 °C 30.31in /  1026.3hPa Calm     38% 0.00in /  0mm 0.0 W/m2
19:50 59.4 °F /  15.2 °C 34.3 °F /  1.3 °C 30.31in /  1026.3hPa ESE 0.9mph /  1.4km/h 3.0mph /  4.8km/h 39% 0.00in /  0mm 0.0 W/m2
19:57 59.4 °F /  15.2 °C 34.3 °F /  1.3 °C 30.31in /  1026.3hPa Calm     39% 0.00in /  0mm 0.0 W/m2
20:03 59.4 °F /  15.2 °C 34.3 °F /  1.3 °C 30.31in /  1026.3hPa Calm     39% 0.00in /  0mm 0.0 W/m2
20:09 59.4 °F /  15.2 °C 34.3 °F /  1.3 °C 30.32in /  1026.6hPa Calm     39% 0.00in /  0mm 0.0 W/m2
20:15 59.4 °F /  15.2 °C 35.1 °F /  1.7 °C 30.31in /  1026.3hPa Calm     40% 0.00in /  0mm 0.0 W/m2
20:21 59.2 °F /  15.1 °C 35.4 °F /  1.9 °C 30.32in /  1026.6hPa Calm   3.0mph /  4.8km/h 41% 0.00in /  0mm 0.0 W/m2
20:27 59.0 °F /  15 °C 34.7 °F /  1.5 °C 30.32in /  1026.6hPa Calm   1.0mph /  1.6km/h 40% 0.00in /  0mm 0.0 W/m2
20:34 58.8 °F /  14.9 °C 34.5 °F /  1.4 °C 30.32in /  1026.6hPa Calm   1.0mph /  1.6km/h 40% 0.00in /  0mm 0.0 W/m2
20:39 58.6 °F /  14.8 °C 35.1 °F /  1.7 °C 30.32in /  1026.6hPa Calm     41% 0.00in /  0mm 0.0 W/m2
20:46 58.6 °F /  14.8 °C 35.1 °F /  1.7 °C 30.32in /  1026.6hPa Calm     41% 0.00in /  0mm 0.0 W/m2
20:52 58.6 °F /  14.8 °C 35.1 °F /  1.7 °C 30.32in /  1026.6hPa Calm     41% 0.00in /  0mm 0.0 W/m2
20:58 58.3 °F /  14.6 °C 34.7 °F /  1.5 °C 30.32in /  1026.6hPa Calm     41% 0.00in /  0mm 0.0 W/m2
21:04 57.9 °F /  14.4 °C 34.3 °F /  1.3 °C 30.32in /  1026.6hPa Calm     41% 0.00in /  0mm 0.0 W/m2
21:10 57.7 °F /  14.3 °C 34.2 °F /  1.2 °C 30.32in /  1026.6hPa Calm     41% 0.00in /  0mm 0.0 W/m2
21:16 57.6 °F /  14.2 °C 34.7 °F /  1.5 °C 30.32in /  1026.6hPa Calm     42% 0.00in /  0mm 0.0 W/m2
21:22 57.4 °F /  14.1 °C 34.5 °F /  1.4 °C 30.32in /  1026.6hPa Calm     42% 0.00in /  0mm 0.0 W/m2
21:29 57.0 °F /  13.9 °C 32.9 °F /  0.5 °C 30.32in /  1026.6hPa Calm     40% 0.00in /  0mm 0.0 W/m2
21:35 57.0 °F /  13.9 °C 32.9 °F /  0.5 °C 30.32in /  1026.6hPa Calm     40% 0.00in /  0mm 0.0 W/m2
21:41 56.8 °F /  13.8 °C 32.7 °F /  0.4 °C 30.32in /  1026.6hPa Calm     40% 0.00in /  0mm 0.0 W/m2
21:47 56.7 °F /  13.7 °C 32.5 °F /  0.3 °C 30.32in /  1026.6hPa Calm     40% 0.00in /  0mm 0.0 W/m2
21:53 56.7 °F /  13.7 °C 33.3 °F /  0.7 °C 30.32in /  1026.6hPa Calm     41% 0.00in /  0mm 0.0 W/m2
21:59 56.3 °F /  13.5 °C 32.4 °F /  0.2 °C 30.32in /  1026.6hPa Calm   3.0mph /  4.8km/h 40% 0.00in /  0mm 0.0 W/m2
22:06 56.7 °F /  13.7 °C 30.0 °F /  -1.1 °C 30.33in /  1027hPa SSE 8.9mph /  14.3km/h 9.0mph /  14.5km/h 36% 0.00in /  0mm 0.0 W/m2
22:12 58.5 °F /  14.7 °C 29.5 °F /  -1.4 °C 30.33in /  1027hPa Calm   4.0mph /  6.4km/h 33% 0.00in /  0mm 0.0 W/m2
22:18 59.5 °F /  15.3 °C 29.7 °F /  -1.3 °C 30.33in /  1027hPa SSE 2.0mph /  3.2km/h 4.0mph /  6.4km/h 32% 0.00in /  0mm 0.0 W/m2
22:25 60.3 °F /  15.7 °C 29.5 °F /  -1.4 °C 30.33in /  1027hPa SSE 2.0mph /  3.2km/h 5.0mph /  8km/h 31% 0.00in /  0mm 0.0 W/m2
22:30 60.8 °F /  16 °C 30.0 °F /  -1.1 °C 30.33in /  1027hPa SE 6.0mph /  9.7km/h 8.0mph /  12.9km/h 31% 0.00in /  0mm 0.0 W/m2
22:36 61.2 °F /  16.2 °C 29.5 °F /  -1.4 °C 30.33in /  1027hPa Calm   8.0mph /  12.9km/h 30% 0.00in /  0mm 0.0 W/m2
22:42 61.5 °F /  16.4 °C 28.9 °F /  -1.7 °C 30.33in /  1027hPa SE 0.9mph /  1.4km/h 6.0mph /  9.7km/h 29% 0.00in /  0mm 0.0 W/m2
22:48 61.7 °F /  16.5 °C 29.1 °F /  -1.6 °C 30.33in /  1027hPa Calm   5.0mph /  8km/h 29% 0.00in /  0mm 0.0 W/m2
22:55 61.9 °F /  16.6 °C 29.3 °F /  -1.5 °C 30.33in /  1027hPa SSE 2.9mph /  4.7km/h 8.0mph /  12.9km/h 29% 0.00in /  0mm 0.0 W/m2
23:01 61.9 °F /  16.6 °C 29.3 °F /  -1.5 °C 30.33in /  1027hPa Calm   5.0mph /  8km/h 29% 0.00in /  0mm 0.0 W/m2
23:07 61.7 °F /  16.5 °C 29.1 °F /  -1.6 °C 30.33in /  1027hPa SSE 4.0mph /  6.4km/h 6.0mph /  9.7km/h 29% 0.00in /  0mm 0.0 W/m2
23:13 61.7 °F /  16.5 °C 29.1 °F /  -1.6 °C 30.33in /  1027hPa Calm   5.0mph /  8km/h 29% 0.00in /  0mm 0.0 W/m2
23:19 61.5 °F /  16.4 °C 28.9 °F /  -1.7 °C 30.33in /  1027hPa SSE 2.0mph /  3.2km/h 6.0mph /  9.7km/h 29% 0.00in /  0mm 0.0 W/m2
23:25 61.5 °F /  16.4 °C 28.9 °F /  -1.7 °C 30.33in /  1027hPa SSE 2.9mph /  4.7km/h 9.0mph /  14.5km/h 29% 0.00in /  0mm 0.0 W/m2
23:31 61.5 °F /  16.4 °C 28.9 °F /  -1.7 °C 30.32in /  1026.6hPa Calm   4.0mph /  6.4km/h 29% 0.00in /  0mm 0.0 W/m2
23:37 61.3 °F /  16.3 °C 28.8 °F /  -1.8 °C 30.32in /  1026.6hPa South 2.9mph /  4.7km/h 4.0mph /  6.4km/h 29% 0.00in /  0mm 0.0 W/m2
23:42 61.2 °F /  16.2 °C 28.6 °F /  -1.9 °C 30.32in /  1026.6hPa Calm   6.0mph /  9.7km/h 29% 0.00in /  0mm 0.0 W/m2
23:47 61.2 °F /  16.2 °C 28.6 °F /  -1.9 °C 30.32in /  1026.6hPa SSE 6.9mph /  11.1km/h 9.0mph /  14.5km/h 29% 0.00in /  0mm 0.0 W/m2
23:53 61.0 °F /  16.1 °C 28.6 °F /  -1.9 °C 30.32in /  1026.6hPa SE 0.9mph /  1.4km/h 7.0mph /  11.3km/h 29% 0.00in /  0mm 0.0 W/m2
23:59 61.2 °F /  16.2 °C 28.6 °F /  -1.9 °C 30.32in /  1026.6hPa South 0.9mph /  1.4km/h 9.0mph /  14.5km/h 29% 0.00in /  0mm 0.0 W/m2
Olympia, Windhoek, Namibia
Compliments of Weather Underground - 3 mb